sensor_id;sensor_type;location;lat;lon;timestamp;pressure;altitude;pressure_sealevel;temperature;humidity
54270;BME280;40181;51.560;13.000;2024-01-15T00:00:14;98798.88;;;0.92;99.18
54270;BME280;40181;51.560;13.000;2024-01-15T00:02:44;98794.47;;;0.88;99.46
54270;BME280;40181;51.560;13.000;2024-01-15T00:05:13;98780.56;;;0.82;99.61
54270;BME280;40181;51.560;13.000;2024-01-15T00:07:42;98788.16;;;0.76;100.00
54270;BME280;40181;51.560;13.000;2024-01-15T00:10:11;98787.13;;;0.69;100.00
54270;BME280;40181;51.560;13.000;2024-01-15T00:12:40;98779.94;;;0.58;99.40
54270;BME280;40181;51.560;13.000;2024-01-15T00:15:09;98768.06;;;0.64;99.79
54270;BME280;40181;51.560;13.000;2024-01-15T00:17:41;98767.13;;;0.62;99.21
54270;BME280;40181;51.560;13.000;2024-01-15T00:20:11;98761.56;;;0.45;99.58
54270;BME280;40181;51.560;13.000;2024-01-15T00:22:40;98757.41;;;0.52;99.14
54270;BME280;40181;51.560;13.000;2024-01-15T00:25:09;98743.78;;;0.58;99.80
54270;BME280;40181;51.560;13.000;2024-01-15T00:27:38;98740.25;;;0.54;99.62
54270;BME280;40181;51.560;13.000;2024-01-15T00:30:08;98742.69;;;0.48;99.63
54270;BME280;40181;51.560;13.000;2024-01-15T00:32:40;98748.66;;;0.45;99.20
54270;BME280;40181;51.560;13.000;2024-01-15T00:35:09;98738.28;;;0.44;99.51
54270;BME280;40181;51.560;13.000;2024-01-15T00:37:38;98737.44;;;0.45;99.60
54270;BME280;40181;51.560;13.000;2024-01-15T00:40:08;98725.50;;;0.50;99.13
54270;BME280;40181;51.560;13.000;2024-01-15T00:42:37;98711.56;;;0.43;99.44
54270;BME280;40181;51.560;13.000;2024-01-15T00:45:07;98716.28;;;0.60;99.02
54270;BME280;40181;51.560;13.000;2024-01-15T00:47:39;98709.38;;;0.59;98.71
54270;BME280;40181;51.560;13.000;2024-01-15T00:50:09;98704.50;;;0.36;98.87
54270;BME280;40181;51.560;13.000;2024-01-15T00:52:39;98700.00;;;0.64;98.90
54270;BME280;40181;51.560;13.000;2024-01-15T00:55:08;98711.47;;;0.38;99.15
54270;BME280;40181;51.560;13.000;2024-01-15T00:57:37;98711.19;;;0.63;98.68
54270;BME280;40181;51.560;13.000;2024-01-15T01:00:08;98708.03;;;0.39;98.66
54270;BME280;40181;51.560;13.000;2024-01-15T01:02:40;98706.53;;;0.48;99.24
54270;BME280;40181;51.560;13.000;2024-01-15T01:05:09;98712.88;;;0.62;98.85
54270;BME280;40181;51.560;13.000;2024-01-15T01:07:38;98710.97;;;0.53;98.59
54270;BME280;40181;51.560;13.000;2024-01-15T01:10:08;98724.97;;;0.63;98.17
54270;BME280;40181;51.560;13.000;2024-01-15T01:12:37;98713.50;;;0.52;98.41
54270;BME280;40181;51.560;13.000;2024-01-15T01:15:06;98707.59;;;0.56;98.16
54270;BME280;40181;51.560;13.000;2024-01-15T01:17:35;98705.69;;;0.49;98.73
54270;BME280;40181;51.560;13.000;2024-01-15T01:20:08;98709.75;;;0.39;98.72
54270;BME280;40181;51.560;13.000;2024-01-15T01:22:37;98715.72;;;0.36;99.17
54270;BME280;40181;51.560;13.000;2024-01-15T01:25:07;98710.56;;;0.38;98.38
54270;BME280;40181;51.560;13.000;2024-01-15T01:27:37;98701.34;;;0.48;98.51
54270;BME280;40181;51.560;13.000;2024-01-15T01:30:06;98696.19;;;0.48;98.19
54270;BME280;40181;51.560;13.000;2024-01-15T01:32:36;98686.81;;;0.53;98.40
54270;BME280;40181;51.560;13.000;2024-01-15T01:35:08;98702.25;;;0.50;98.55
54270;BME280;40181;51.560;13.000;2024-01-15T01:37:37;98702.88;;;0.39;98.57
54270;BME280;40181;51.560;13.000;2024-01-15T01:40:08;98690.00;;;0.41;99.38
54270;BME280;40181;51.560;13.000;2024-01-15T01:42:37;98683.22;;;0.46;99.75
54270;BME280;40181;51.560;13.000;2024-01-15T01:45:07;98692.28;;;0.29;99.63
54270;BME280;40181;51.560;13.000;2024-01-15T01:47:37;98681.75;;;0.58;99.13
54270;BME280;40181;51.560;13.000;2024-01-15T01:50:10;98690.34;;;0.57;99.22
54270;BME280;40181;51.560;13.000;2024-01-15T01:52:40;98679.16;;;0.56;98.69
54270;BME280;40181;51.560;13.000;2024-01-15T01:55:11;98683.22;;;0.46;99.57
54270;BME280;40181;51.560;13.000;2024-01-15T01:57:41;98704.78;;;0.47;99.42
54270;BME280;40181;51.560;13.000;2024-01-15T02:00:12;98690.03;;;0.43;98.90
54270;BME280;40181;51.560;13.000;2024-01-15T02:02:42;98685.53;;;0.35;98.35
54270;BME280;40181;51.560;13.000;2024-01-15T02:05:14;98671.16;;;0.45;98.66
54270;BME280;40181;51.560;13.000;2024-01-15T02:07:47;98681.38;;;0.40;97.75
54270;BME280;40181;51.560;13.000;2024-01-15T02:10:16;98682.53;;;0.53;97.99
54270;BME280;40181;51.560;13.000;2024-01-15T02:12:45;98673.66;;;0.42;98.11
54270;BME280;40181;51.560;13.000;2024-01-15T02:15:15;98668.94;;;0.61;97.54
54270;BME280;40181;51.560;13.000;2024-01-15T02:17:57;98661.91;;;0.55;97.18
54270;BME280;40181;51.560;13.000;2024-01-15T02:20:29;98676.97;;;0.36;98.22
54270;BME280;40181;51.560;13.000;2024-01-15T02:23:08;98662.81;;;0.57;98.17
54270;BME280;40181;51.560;13.000;2024-01-15T02:25:39;98660.97;;;0.51;97.66
54270;BME280;40181;51.560;13.000;2024-01-15T02:28:11;98661.47;;;0.36;98.36
54270;BME280;40181;51.560;13.000;2024-01-15T02:30:41;98657.22;;;0.40;97.90
54270;BME280;40181;51.560;13.000;2024-01-15T02:33:11;98656.31;;;0.36;97.76
54270;BME280;40181;51.560;13.000;2024-01-15T02:35:41;98658.69;;;0.29;98.14
54270;BME280;40181;51.560;13.000;2024-01-15T02:38:14;98664.84;;;0.34;98.70
54270;BME280;40181;51.560;13.000;2024-01-15T02:40:43;98656.53;;;0.46;99.61
54270;BME280;40181;51.560;13.000;2024-01-15T02:43:13;98655.94;;;0.21;99.43
54270;BME280;40181;51.560;13.000;2024-01-15T02:45:44;98669.25;;;0.38;98.22
54270;BME280;40181;51.560;13.000;2024-01-15T02:48:13;98657.91;;;0.31;97.72
54270;BME280;40181;51.560;13.000;2024-01-15T02:50:42;98681.31;;;0.37;97.71
54270;BME280;40181;51.560;13.000;2024-01-15T02:53:09;98669.44;;;0.46;97.40
54270;BME280;40181;51.560;13.000;2024-01-15T02:55:40;98669.81;;;0.26;97.01
54270;BME280;40181;51.560;13.000;2024-01-15T02:58:10;98678.56;;;0.31;97.82
54270;BME280;40181;51.560;13.000;2024-01-15T03:00:39;98663.06;;;0.31;97.62
54270;BME280;40181;51.560;13.000;2024-01-15T03:03:08;98674.13;;;0.25;98.27
54270;BME280;40181;51.560;13.000;2024-01-15T03:05:38;98676.25;;;0.42;98.41
54270;BME280;40181;51.560;13.000;2024-01-15T03:08:07;98680.88;;;0.20;99.05
54270;BME280;40181;51.560;13.000;2024-01-15T03:10:36;98683.38;;;0.17;99.67
54270;BME280;40181;51.560;13.000;2024-01-15T03:13:07;98664.66;;;0.26;99.87
54270;BME280;40181;51.560;13.000;2024-01-15T03:15:36;98673.78;;;0.11;99.97
54270;BME280;40181;51.560;13.000;2024-01-15T03:18:05;98681.19;;;-0.01;100.00
54270;BME280;40181;51.560;13.000;2024-01-15T03:20:34;98675.59;;;0.16;100.00
54270;BME280;40181;51.560;13.000;2024-01-15T03:23:03;98662.66;;;0.14;100.00
54270;BME280;40181;51.560;13.000;2024-01-15T03:25:32;98668.28;;;-0.01;100.00
54270;BME280;40181;51.560;13.000;2024-01-15T03:28:03;98670.38;;;0.12;99.74
54270;BME280;40181;51.560;13.000;2024-01-15T03:30:35;98668.91;;;0.24;99.53
54270;BME280;40181;51.560;13.000;2024-01-15T03:33:04;98671.94;;;0.07;99.62
54270;BME280;40181;51.560;13.000;2024-01-15T03:35:33;98665.69;;;0.33;99.00
54270;BME280;40181;51.560;13.000;2024-01-15T03:38:03;98659.66;;;0.32;98.25
54270;BME280;40181;51.560;13.000;2024-01-15T03:40:32;98667.56;;;0.40;98.14
54270;BME280;40181;51.560;13.000;2024-01-15T03:43:01;98674.81;;;0.18;98.11
54270;BME280;40181;51.560;13.000;2024-01-15T03:45:32;98665.81;;;0.37;97.39
54270;BME280;40181;51.560;13.000;2024-01-15T03:48:01;98664.47;;;0.18;97.62
54270;BME280;40181;51.560;13.000;2024-01-15T03:50:31;98654.16;;;0.18;97.43
54270;BME280;40181;51.560;13.000;2024-01-15T03:53:00;98657.84;;;0.30;97.93
54270;BME280;40181;51.560;13.000;2024-01-15T03:55:29;98664.53;;;0.20;97.33
54270;BME280;40181;51.560;13.000;2024-01-15T03:57:58;98661.97;;;0.21;97.81
54270;BME280;40181;51.560;13.000;2024-01-15T04:00:27;98675.16;;;0.32;97.89
54270;BME280;40181;51.560;13.000;2024-01-15T04:02:59;98666.94;;;0.49;97.04
54270;BME280;40181;51.560;13.000;2024-01-15T04:05:28;98668.50;;;0.44;96.70
54270;BME280;40181;51.560;13.000;2024-01-15T04:07:57;98682.06;;;0.33;97.10
54270;BME280;40181;51.560;13.000;2024-01-15T04:10:26;98654.44;;;0.31;97.34
54270;BME280;40181;51.560;13.000;2024-01-15T04:12:55;98663.06;;;0.31;96.73
54270;BME280;40181;51.560;13.000;2024-01-15T04:15:24;98652.00;;;0.37;96.67
54270;BME280;40181;51.560;13.000;2024-01-15T04:17:53;98650.63;;;0.15;96.39
54270;BME280;40181;51.560;13.000;2024-01-15T04:20:25;98647.88;;;0.08;96.53
54270;BME280;40181;51.560;13.000;2024-01-15T04:22:54;98647.06;;;0.11;96.87
54270;BME280;40181;51.560;13.000;2024-01-15T04:25:23;98647.34;;;0.22;96.89
54270;BME280;40181;51.560;13.000;2024-01-15T04:27:53;98644.81;;;0.25;96.70
54270;BME280;40181;51.560;13.000;2024-01-15T04:30:22;98640.13;;;0.08;97.24
54270;BME280;40181;51.560;13.000;2024-01-15T04:32:51;98634.13;;;-0.26;97.77
54270;BME280;40181;51.560;13.000;2024-01-15T04:35:20;98647.06;;;0.09;96.80
54270;BME280;40181;51.560;13.000;2024-01-15T04:37:51;98636.56;;;0.03;96.69
54270;BME280;40181;51.560;13.000;2024-01-15T04:40:20;98633.03;;;-0.01;96.96
54270;BME280;40181;51.560;13.000;2024-01-15T04:42:52;98639.91;;;-0.01;97.54
54270;BME280;40181;51.560;13.000;2024-01-15T04:45:21;98657.00;;;-0.05;97.26
54270;BME280;40181;51.560;13.000;2024-01-15T04:47:53;98636.97;;;-0.17;97.27
54270;BME280;40181;51.560;13.000;2024-01-15T04:50:23;98625.06;;;-0.10;97.49
54270;BME280;40181;51.560;13.000;2024-01-15T04:52:55;98633.53;;;-0.16;97.51
54270;BME280;40181;51.560;13.000;2024-01-15T04:55:24;98610.66;;;-0.02;97.00
54270;BME280;40181;51.560;13.000;2024-01-15T04:57:53;98610.75;;;0.03;96.54
54270;BME280;40181;51.560;13.000;2024-01-15T05:00:22;98612.84;;;-0.17;97.07
54270;BME280;40181;51.560;13.000;2024-01-15T05:02:51;98606.44;;;0.04;96.57
54270;BME280;40181;51.560;13.000;2024-01-15T05:05:21;98616.66;;;-0.03;96.40
54270;BME280;40181;51.560;13.000;2024-01-15T05:07:51;98595.22;;;0.02;96.29
54270;BME280;40181;51.560;13.000;2024-01-15T05:10:22;98597.78;;;0.00;96.22
54270;BME280;40181;51.560;13.000;2024-01-15T05:12:51;98598.41;;;-0.09;96.14
54270;BME280;40181;51.560;13.000;2024-01-15T05:15:20;98608.44;;;0.14;95.85
54270;BME280;40181;51.560;13.000;2024-01-15T05:17:49;98602.97;;;0.02;96.44
54270;BME280;40181;51.560;13.000;2024-01-15T05:20:18;98625.94;;;-0.09;95.54
54270;BME280;40181;51.560;13.000;2024-01-15T05:22:47;98611.03;;;0.16;95.72
54270;BME280;40181;51.560;13.000;2024-01-15T05:25:19;98624.56;;;0.05;95.27
54270;BME280;40181;51.560;13.000;2024-01-15T05:27:48;98603.13;;;0.08;95.46
54270;BME280;40181;51.560;13.000;2024-01-15T05:30:17;98617.84;;;0.12;96.06
54270;BME280;40181;51.560;13.000;2024-01-15T05:32:46;98610.88;;;0.08;95.74
54270;BME280;40181;51.560;13.000;2024-01-15T05:35:15;98605.81;;;0.12;95.07
54270;BME280;40181;51.560;13.000;2024-01-15T05:37:44;98621.03;;;0.00;94.30
54270;BME280;40181;51.560;13.000;2024-01-15T05:40:14;98609.22;;;0.11;93.81
54270;BME280;40181;51.560;13.000;2024-01-15T05:42:46;98609.25;;;0.13;93.45
54270;BME280;40181;51.560;13.000;2024-01-15T05:45:15;98606.13;;;0.26;92.89
54270;BME280;40181;51.560;13.000;2024-01-15T05:47:44;98600.28;;;0.34;93.03
54270;BME280;40181;51.560;13.000;2024-01-15T05:50:13;98602.66;;;0.26;91.81
54270;BME280;40181;51.560;13.000;2024-01-15T05:52:42;98594.81;;;0.21;92.02
54270;BME280;40181;51.560;13.000;2024-01-15T05:55:11;98604.41;;;0.25;91.70
54270;BME280;40181;51.560;13.000;2024-01-15T05:57:40;98603.63;;;0.30;91.18
54270;BME280;40181;51.560;13.000;2024-01-15T06:00:13;98603.56;;;0.26;90.79
54270;BME280;40181;51.560;13.000;2024-01-15T06:02:42;98619.19;;;0.33;90.61
54270;BME280;40181;51.560;13.000;2024-01-15T06:05:11;98616.69;;;0.36;90.37
54270;BME280;40181;51.560;13.000;2024-01-15T06:07:41;98626.94;;;0.33;90.06
54270;BME280;40181;51.560;13.000;2024-01-15T06:10:10;98615.16;;;0.44;89.30
54270;BME280;40181;51.560;13.000;2024-01-15T06:12:39;98613.25;;;0.37;89.13
54270;BME280;40181;51.560;13.000;2024-01-15T06:15:09;98623.69;;;0.41;88.91
54270;BME280;40181;51.560;13.000;2024-01-15T06:17:40;98625.91;;;0.24;89.79
54270;BME280;40181;51.560;13.000;2024-01-15T06:20:11;98622.56;;;0.30;91.09
54270;BME280;40181;51.560;13.000;2024-01-15T06:22:40;98625.69;;;0.15;93.86
54270;BME280;40181;51.560;13.000;2024-01-15T06:25:09;98609.00;;;0.39;93.50
54270;BME280;40181;51.560;13.000;2024-01-15T06:27:38;98616.97;;;0.11;93.79
54270;BME280;40181;51.560;13.000;2024-01-15T06:30:09;98644.38;;;0.05;93.54
54270;BME280;40181;51.560;13.000;2024-01-15T06:32:41;98612.41;;;0.36;93.35
54270;BME280;40181;51.560;13.000;2024-01-15T06:35:10;98613.88;;;0.26;92.67
54270;BME280;40181;51.560;13.000;2024-01-15T06:37:39;98605.84;;;0.14;92.17
54270;BME280;40181;51.560;13.000;2024-01-15T06:40:09;98591.63;;;0.32;92.09
54270;BME280;40181;51.560;13.000;2024-01-15T06:42:38;98608.16;;;0.40;92.07
54270;BME280;40181;51.560;13.000;2024-01-15T06:45:08;98606.94;;;0.24;91.71
54270;BME280;40181;51.560;13.000;2024-01-15T06:47:40;98612.97;;;0.24;91.40
54270;BME280;40181;51.560;13.000;2024-01-15T06:50:09;98610.03;;;0.47;91.05
54270;BME280;40181;51.560;13.000;2024-01-15T06:52:38;98625.41;;;0.41;90.65
54270;BME280;40181;51.560;13.000;2024-01-15T06:55:08;98604.81;;;0.44;90.91
54270;BME280;40181;51.560;13.000;2024-01-15T06:57:37;98602.97;;;0.40;90.87
54270;BME280;40181;51.560;13.000;2024-01-15T07:00:07;98617.31;;;0.27;91.04
54270;BME280;40181;51.560;13.000;2024-01-15T07:02:36;98627.97;;;0.39;91.20
54270;BME280;40181;51.560;13.000;2024-01-15T07:05:08;98620.84;;;0.31;90.80
54270;BME280;40181;51.560;13.000;2024-01-15T07:07:37;98643.16;;;0.27;90.34
54270;BME280;40181;51.560;13.000;2024-01-15T07:10:07;98634.59;;;0.30;90.47
54270;BME280;40181;51.560;13.000;2024-01-15T07:12:36;98634.38;;;0.19;90.72
54270;BME280;40181;51.560;13.000;2024-01-15T07:15:06;98626.94;;;0.33;90.69
54270;BME280;40181;51.560;13.000;2024-01-15T07:17:35;98622.38;;;0.21;90.43
54270;BME280;40181;51.560;13.000;2024-01-15T07:20:09;98639.94;;;0.36;90.63
54270;BME280;40181;51.560;13.000;2024-01-15T07:22:39;98626.94;;;0.33;90.95
54270;BME280;40181;51.560;13.000;2024-01-15T07:25:08;98633.88;;;0.35;91.00
54270;BME280;40181;51.560;13.000;2024-01-15T07:27:38;98627.78;;;0.32;91.07
54270;BME280;40181;51.560;13.000;2024-01-15T07:30:10;98633.75;;;0.29;91.44
54270;BME280;40181;51.560;13.000;2024-01-15T07:32:40;98630.91;;;0.18;91.04
54270;BME280;40181;51.560;13.000;2024-01-15T07:35:12;98626.53;;;0.14;91.11
54270;BME280;40181;51.560;13.000;2024-01-15T07:37:42;98643.78;;;0.17;90.89
54270;BME280;40181;51.560;13.000;2024-01-15T07:40:11;98648.06;;;0.16;90.86
54270;BME280;40181;51.560;13.000;2024-01-15T07:42:40;98642.41;;;0.31;90.52
54270;BME280;40181;51.560;13.000;2024-01-15T07:45:10;98645.59;;;0.21;90.58
54270;BME280;40181;51.560;13.000;2024-01-15T07:47:39;98627.91;;;0.36;90.66
54270;BME280;40181;51.560;13.000;2024-01-15T07:50:08;98669.88;;;0.27;91.15
54270;BME280;40181;51.560;13.000;2024-01-15T07:52:40;98660.19;;;0.19;90.92
54270;BME280;40181;51.560;13.000;2024-01-15T07:55:09;98627.59;;;0.24;90.63
54270;BME280;40181;51.560;13.000;2024-01-15T07:57:38;98641.38;;;0.24;91.06
54270;BME280;40181;51.560;13.000;2024-01-15T08:00:08;98631.97;;;0.26;90.79
54270;BME280;40181;51.560;13.000;2024-01-15T08:02:38;98635.38;;;0.25;90.89
54270;BME280;40181;51.560;13.000;2024-01-15T08:05:07;98631.69;;;0.14;91.07
54270;BME280;40181;51.560;13.000;2024-01-15T08:07:38;98648.72;;;0.07;91.13
54270;BME280;40181;51.560;13.000;2024-01-15T08:10:08;98649.41;;;0.00;91.47
54270;BME280;40181;51.560;13.000;2024-01-15T08:12:39;98650.28;;;0.01;91.17
54270;BME280;40181;51.560;13.000;2024-01-15T08:15:08;98645.81;;;0.30;91.31
54270;BME280;40181;51.560;13.000;2024-01-15T08:17:34;98650.38;;;0.05;91.21
54270;BME280;40181;51.560;13.000;2024-01-15T08:20:04;98655.84;;;0.18;91.43
54270;BME280;40181;51.560;13.000;2024-01-15T08:22:35;98665.31;;;0.17;91.22
54270;BME280;40181;51.560;13.000;2024-01-15T08:25:08;98660.84;;;0.10;91.18
54270;BME280;40181;51.560;13.000;2024-01-15T08:27:38;98647.56;;;0.31;90.81
54270;BME280;40181;51.560;13.000;2024-01-15T08:30:09;98659.34;;;0.20;90.63
54270;BME280;40181;51.560;13.000;2024-01-15T08:32:39;98659.13;;;0.46;90.27
54270;BME280;40181;51.560;13.000;2024-01-15T08:35:08;98648.97;;;0.18;91.03
54270;BME280;40181;51.560;13.000;2024-01-15T08:37:40;98650.56;;;0.11;90.41
54270;BME280;40181;51.560;13.000;2024-01-15T08:40:10;98655.16;;;0.25;90.59
54270;BME280;40181;51.560;13.000;2024-01-15T08:42:41;98644.22;;;0.35;90.63
54270;BME280;40181;51.560;13.000;2024-01-15T08:45:10;98647.56;;;0.31;90.47
54270;BME280;40181;51.560;13.000;2024-01-15T08:47:40;98660.66;;;0.39;90.27
54270;BME280;40181;51.560;13.000;2024-01-15T08:50:09;98656.59;;;0.49;89.65
54270;BME280;40181;51.560;13.000;2024-01-15T08:52:40;98657.16;;;0.37;90.04
54270;BME280;40181;51.560;13.000;2024-01-15T08:55:09;98669.13;;;0.33;90.24
54270;BME280;40181;51.560;13.000;2024-01-15T08:57:38;98655.66;;;0.45;89.99
54270;BME280;40181;51.560;13.000;2024-01-15T09:00:09;98666.59;;;0.35;90.15
54270;BME280;40181;51.560;13.000;2024-01-15T09:02:40;98663.53;;;0.51;90.11
54270;BME280;40181;51.560;13.000;2024-01-15T09:05:09;98681.69;;;0.54;90.28
54270;BME280;40181;51.560;13.000;2024-01-15T09:07:40;98668.97;;;0.64;89.79
54270;BME280;40181;51.560;13.000;2024-01-15T09:10:11;98678.31;;;0.57;89.61
54270;BME280;40181;51.560;13.000;2024-01-15T09:12:40;98690.88;;;0.41;90.01
54270;BME280;40181;51.560;13.000;2024-01-15T09:15:09;98688.44;;;0.48;89.83
54270;BME280;40181;51.560;13.000;2024-01-15T09:17:38;98665.19;;;0.48;89.65
54270;BME280;40181;51.560;13.000;2024-01-15T09:20:10;98685.00;;;0.49;89.81
54270;BME280;40181;51.560;13.000;2024-01-15T09:22:42;98652.47;;;0.57;89.86
54270;BME280;40181;51.560;13.000;2024-01-15T09:25:11;98664.06;;;0.76;89.70
54270;BME280;40181;51.560;13.000;2024-01-15T09:27:40;98662.03;;;0.61;89.90
54270;BME280;40181;51.560;13.000;2024-01-15T09:30:11;98685.22;;;0.58;89.99
54270;BME280;40181;51.560;13.000;2024-01-15T09:32:40;98670.91;;;0.73;89.85
54270;BME280;40181;51.560;13.000;2024-01-15T09:35:09;98685.38;;;0.66;89.96
54270;BME280;40181;51.560;13.000;2024-01-15T09:37:41;98681.00;;;0.62;89.67
54270;BME280;40181;51.560;13.000;2024-01-15T09:40:12;98683.69;;;0.66;89.48
54270;BME280;40181;51.560;13.000;2024-01-15T09:42:43;98684.00;;;0.80;88.63
54270;BME280;40181;51.560;13.000;2024-01-15T09:45:13;98683.84;;;0.74;88.99
54270;BME280;40181;51.560;13.000;2024-01-15T09:47:43;98684.22;;;0.53;89.39
54270;BME280;40181;51.560;13.000;2024-01-15T09:50:13;98680.38;;;0.72;89.15
54270;BME280;40181;51.560;13.000;2024-01-15T09:52:45;98679.38;;;0.67;89.45
54270;BME280;40181;51.560;13.000;2024-01-15T09:55:15;98671.94;;;0.81;89.50
54270;BME280;40181;51.560;13.000;2024-01-15T09:57:45;98680.22;;;0.64;88.61
54270;BME280;40181;51.560;13.000;2024-01-15T10:00:17;98681.91;;;0.64;89.30
54270;BME280;40181;51.560;13.000;2024-01-15T10:02:46;98682.59;;;0.57;89.45
54270;BME280;40181;51.560;13.000;2024-01-15T10:05:16;98679.69;;;0.79;89.25
54270;BME280;40181;51.560;13.000;2024-01-15T10:07:48;98657.59;;;0.55;89.33
54270;BME280;40181;51.560;13.000;2024-01-15T10:10:17;98674.47;;;0.78;89.08
54270;BME280;40181;51.560;13.000;2024-01-15T10:12:47;98674.41;;;0.75;89.76
54270;BME280;40181;51.560;13.000;2024-01-15T10:15:17;98655.47;;;0.76;88.83
54270;BME280;40181;51.560;13.000;2024-01-15T10:17:46;98661.47;;;0.75;88.93
54270;BME280;40181;51.560;13.000;2024-01-15T10:20:15;98656.63;;;0.89;88.75
54270;BME280;40181;51.560;13.000;2024-01-15T10:22:46;98659.69;;;0.72;89.08
54270;BME280;40181;51.560;13.000;2024-01-15T10:25:15;98646.28;;;0.89;89.86
54270;BME280;40181;51.560;13.000;2024-01-15T10:27:59;98651.50;;;0.92;89.29
54270;BME280;40181;51.560;13.000;2024-01-15T10:30:30;98650.66;;;0.91;89.11
54270;BME280;40181;51.560;13.000;2024-01-15T10:33:02;98655.53;;;0.79;89.03
54270;BME280;40181;51.560;13.000;2024-01-15T10:35:33;98648.75;;;0.84;88.88
54270;BME280;40181;51.560;13.000;2024-01-15T10:38:05;98664.53;;;0.96;88.39
54270;BME280;40181;51.560;13.000;2024-01-15T10:40:34;98655.16;;;1.02;88.76
54270;BME280;40181;51.560;13.000;2024-01-15T10:43:03;98655.31;;;1.09;88.26
54270;BME280;40181;51.560;13.000;2024-01-15T10:45:35;98680.31;;;1.09;88.13
54270;BME280;40181;51.560;13.000;2024-01-15T10:48:05;98644.97;;;1.09;87.68
54270;BME280;40181;51.560;13.000;2024-01-15T10:50:34;98657.25;;;1.20;87.18
54270;BME280;40181;51.560;13.000;2024-01-15T10:53:07;98645.72;;;1.04;87.32
54270;BME280;40181;51.560;13.000;2024-01-15T10:55:38;98641.53;;;1.09;87.33
54270;BME280;40181;51.560;13.000;2024-01-15T10:58:07;98654.47;;;1.09;87.38
54270;BME280;40181;51.560;13.000;2024-01-15T11:00:37;98648.59;;;1.18;87.32
54270;BME280;40181;51.560;13.000;2024-01-15T11:03:06;98644.03;;;1.06;87.29
54270;BME280;40181;51.560;13.000;2024-01-15T11:05:37;98634.47;;;1.02;87.71
54270;BME280;40181;51.560;13.000;2024-01-15T11:08:07;98636.34;;;1.09;87.10
54270;BME280;40181;51.560;13.000;2024-01-15T11:10:38;98634.19;;;0.88;87.38
54270;BME280;40181;51.560;13.000;2024-01-15T11:13:08;98641.81;;;1.24;87.26
54270;BME280;40181;51.560;13.000;2024-01-15T11:15:55;98627.28;;;1.30;87.15
54270;BME280;40181;51.560;13.000;2024-01-15T11:18:29;98625.81;;;1.00;87.45
54270;BME280;40181;51.560;13.000;2024-01-15T11:21:19;98624.59;;;1.25;87.46
54270;BME280;40181;51.560;13.000;2024-01-15T11:23:54;98632.94;;;1.12;88.55
54270;BME280;40181;51.560;13.000;2024-01-15T11:26:43;98624.22;;;1.06;88.32
54270;BME280;40181;51.560;13.000;2024-01-15T11:29:30;98625.22;;;1.13;88.63
54270;BME280;40181;51.560;13.000;2024-01-15T11:32:05;98626.09;;;1.14;89.85
54270;BME280;40181;51.560;13.000;2024-01-15T11:34:50;98621.97;;;1.23;90.06
54270;BME280;40181;51.560;13.000;2024-01-15T11:37:28;98646.59;;;1.04;90.48
54270;BME280;40181;51.560;13.000;2024-01-15T11:40:18;98639.66;;;1.03;90.13
54270;BME280;40181;51.560;13.000;2024-01-15T11:42:48;98643.28;;;1.10;90.88
54270;BME280;40181;51.560;13.000;2024-01-15T11:45:19;98627.56;;;1.01;91.14
54270;BME280;40181;51.560;13.000;2024-01-15T11:48:10;98624.47;;;1.19;91.28
54270;BME280;40181;51.560;13.000;2024-01-15T11:50:41;98620.84;;;1.10;91.60
54270;BME280;40181;51.560;13.000;2024-01-15T11:53:25;98623.38;;;1.07;91.90
54270;BME280;40181;51.560;13.000;2024-01-15T11:56:01;98624.22;;;1.06;91.34
54270;BME280;40181;51.560;13.000;2024-01-15T11:58:31;98627.94;;;1.21;91.58
54270;BME280;40181;51.560;13.000;2024-01-15T12:01:03;98624.38;;;1.13;91.21
54270;BME280;40181;51.560;13.000;2024-01-15T12:03:32;98626.03;;;1.10;91.95
54270;BME280;40181;51.560;13.000;2024-01-15T12:06:02;98634.66;;;1.11;91.97
54270;BME280;40181;51.560;13.000;2024-01-15T12:08:33;98633.72;;;1.07;94.25
54270;BME280;40181;51.560;13.000;2024-01-15T12:11:07;98614.91;;;1.16;94.60
54270;BME280;40181;51.560;13.000;2024-01-15T12:13:41;98620.56;;;0.96;94.92
54270;BME280;40181;51.560;13.000;2024-01-15T12:16:10;98635.13;;;0.93;95.35
54270;BME280;40181;51.560;13.000;2024-01-15T12:18:40;98623.47;;;1.12;96.27
54270;BME280;40181;51.560;13.000;2024-01-15T12:21:10;98623.34;;;1.06;96.42
54270;BME280;40181;51.560;13.000;2024-01-15T12:23:39;98618.97;;;1.03;95.84
54270;BME280;40181;51.560;13.000;2024-01-15T12:26:11;98626.00;;;1.09;93.99
54270;BME280;40181;51.560;13.000;2024-01-15T12:28:40;98621.88;;;1.17;93.04
54270;BME280;40181;51.560;13.000;2024-01-15T12:31:09;98649.63;;;1.26;92.25
54270;BME280;40181;51.560;13.000;2024-01-15T12:33:38;98630.44;;;1.15;91.54
54270;BME280;40181;51.560;13.000;2024-01-15T12:36:07;98622.94;;;1.30;91.46
54270;BME280;40181;51.560;13.000;2024-01-15T12:38:36;98631.63;;;1.32;90.37
54270;BME280;40181;51.560;13.000;2024-01-15T12:41:06;98634.22;;;1.32;91.41
54270;BME280;40181;51.560;13.000;2024-01-15T12:43:38;98625.44;;;1.24;90.60
54270;BME280;40181;51.560;13.000;2024-01-15T12:46:08;98635.13;;;1.34;90.79
54270;BME280;40181;51.560;13.000;2024-01-15T12:48:37;98625.78;;;1.43;90.23
54270;BME280;40181;51.560;13.000;2024-01-15T12:51:06;98623.94;;;1.35;90.33
54270;BME280;40181;51.560;13.000;2024-01-15T12:53:35;98633.88;;;1.15;90.66
54270;BME280;40181;51.560;13.000;2024-01-15T12:56:05;98626.66;;;1.43;89.89
54270;BME280;40181;51.560;13.000;2024-01-15T12:58:34;98622.31;;;1.41;90.90
54270;BME280;40181;51.560;13.000;2024-01-15T13:01:05;98618.56;;;1.26;90.04
54270;BME280;40181;51.560;13.000;2024-01-15T13:03:35;98626.38;;;1.29;90.55
54270;BME280;40181;51.560;13.000;2024-01-15T13:06:04;98623.00;;;1.32;90.19
54270;BME280;40181;51.560;13.000;2024-01-15T13:08:34;98624.06;;;1.43;89.62
54270;BME280;40181;51.560;13.000;2024-01-15T13:11:03;98635.94;;;1.32;90.36
54270;BME280;40181;51.560;13.000;2024-01-15T13:13:33;98629.16;;;1.38;90.39
54270;BME280;40181;51.560;13.000;2024-01-15T13:16:05;98633.28;;;1.29;90.41